Time;durP1;ratioP1;P1;durP2;ratioP2;P2;SDS_P1;SDS_P2;PMS_P1;PMS_P2;Temp;Humidity;BMP_temperature;BMP_pressure;BME280_temperature;BME280_humidity;BME280_pressure;Samples;Min_cycle;Max_cycle;Signal;HPM_P1;HPM_P2
2023/08/25 00:02:48;;;;;;;10.30;2.97;;;;;;;;;;4980232;28;20042;-61
2023/08/25 00:05:38;;;;;;;10.05;3.05;;;;;;;;;;4980667;28;20054;-61
2023/08/25 00:08:32;;;;;;;11.40;3.50;;;;;;;;;;4977776;28;20105;-61
2023/08/25 00:11:19;;;;;;;8.60;3.10;;;;;;;;;;4981434;28;20101;-61
2023/08/25 00:14:13;;;;;;;9.65;3.22;;;;;;;;;;4978386;28;20050;-61
2023/08/25 00:17:08;;;;;;;7.50;3.20;;;;;;;;;;4982311;28;20062;-61
2023/08/25 00:20:12;;;;;;;9.10;3.00;;;;;;;;;;4982357;28;20054;-61
2023/08/25 00:22:58;;;;;;;16.20;3.65;;;;;;;;;;4981146;28;20483;-61
2023/08/25 00:25:53;;;;;;;9.50;3.00;;;;;;;;;;4982284;28;20057;-60
2023/08/25 00:28:39;;;;;;;14.02;3.40;;;;;;;;;;4979108;28;20061;-67
2023/08/25 00:31:33;;;;;;;9.65;3.17;;;;;;;;;;4981250;28;20467;-61
2023/08/25 00:34:20;;;;;;;9.10;3.10;;;;;;;;;;4981483;28;20566;-62
2023/08/25 00:37:14;;;;;;;7.90;2.95;;;;;;;;;;4982199;28;20061;-61
2023/08/25 00:40:02;;;;;;;6.07;2.80;;;;;;;;;;4979202;28;20058;-61
2023/08/25 00:42:55;;;;;;;7.13;3.35;;;;;;;;;;4981299;28;20061;-62
2023/08/25 00:45:42;;;;;;;8.07;3.08;;;;;;;;;;4982981;28;20121;-57
2023/08/25 00:48:36;;;;;;;10.20;2.95;;;;;;;;;;4981802;28;20054;-58
2023/08/25 00:51:24;;;;;;;13.02;3.53;;;;;;;;;;4981982;28;20077;-55
2023/08/25 00:54:18;;;;;;;13.50;3.42;;;;;;;;;;4979438;28;20090;-59
2023/08/25 00:57:06;;;;;;;9.95;3.20;;;;;;;;;;4981339;28;20065;-56
2023/08/25 01:00:00;;;;;;;11.10;3.65;;;;;;;;;;4977559;28;20054;-51
2023/08/25 01:02:47;;;;;;;9.38;3.50;;;;;;;;;;4979469;28;20054;-47
2023/08/25 01:05:41;;;;;;;13.32;3.63;;;;;;;;;;4980535;28;20070;-52
2023/08/25 01:08:29;;;;;;;10.20;3.22;;;;;;;;;;4981854;28;20054;-53
2023/08/25 01:11:26;;;;;;;9.07;3.58;;;;;;;;;;4980065;28;20058;-48
2023/08/25 01:14:22;;;;;;;11.43;3.42;;;;;;;;;;4979877;28;20520;-57
2023/08/25 01:17:26;;;;;;;17.33;3.88;;;;;;;;;;4982205;28;20420;-59
2023/08/25 01:20:15;;;;;;;11.30;3.60;;;;;;;;;;4980561;28;20062;-57
2023/08/25 01:23:18;;;;;;;16.08;4.45;;;;;;;;;;4980832;28;20050;-60
2023/08/25 01:26:05;;;;;;;17.50;3.97;;;;;;;;;;4980361;28;20058;-48
2023/08/25 01:28:59;;;;;;;14.65;4.22;;;;;;;;;;4980612;28;20050;-63
2023/08/25 01:31:46;;;;;;;11.98;3.88;;;;;;;;;;4979518;28;20058;-63
2023/08/25 01:34:40;;;;;;;10.52;3.70;;;;;;;;;;4984308;28;20109;-63
2023/08/25 01:37:38;;;;;;;19.50;4.57;;;;;;;;;;4982323;28;20490;-63
2023/08/25 01:40:31;;;;;;;13.90;4.38;;;;;;;;;;4983478;28;20455;-63
2023/08/25 01:43:27;;;;;;;12.60;4.07;;;;;;;;;;4982404;28;20055;-49
2023/08/25 01:46:15;;;;;;;13.90;4.07;;;;;;;;;;4980405;28;20459;-51
2023/08/25 01:49:09;;;;;;;19.90;4.15;;;;;;;;;;4983285;28;20058;-50
2023/08/25 01:51:57;;;;;;;10.65;3.88;;;;;;;;;;4983199;28;20054;-57
2023/08/25 01:54:52;;;;;;;11.32;3.78;;;;;;;;;;4986466;28;20118;-46
2023/08/25 01:57:39;;;;;;;14.70;3.88;;;;;;;;;;4987259;28;20054;-50
2023/08/25 02:00:33;;;;;;;16.40;4.07;;;;;;;;;;4984621;28;20595;-53
2023/08/25 02:03:20;;;;;;;14.80;3.45;;;;;;;;;;4982068;28;20058;-50
2023/08/25 02:06:14;;;;;;;10.40;3.60;;;;;;;;;;4982205;28;20507;-55
2023/08/25 02:09:01;;;;;;;14.15;3.60;;;;;;;;;;4982838;28;20090;-54
2023/08/25 02:11:55;;;;;;;7.43;3.63;;;;;;;;;;4980707;28;20058;-56
2023/08/25 02:14:42;;;;;;;8.02;3.80;;;;;;;;;;4984237;28;20086;-58
2023/08/25 02:17:36;;;;;;;13.63;3.20;;;;;;;;;;4983887;28;20129;-57
2023/08/25 02:20:45;;;;;;;13.65;4.22;;;;;;;;;;4984984;28;20061;-55
2023/08/25 02:23:40;;;;;;;11.10;3.65;;;;;;;;;;4977721;28;20054;-59
2023/08/25 02:26:26;;;;;;;13.20;3.67;;;;;;;;;;4981169;28;20105;-56
2023/08/25 02:29:20;;;;;;;9.02;3.35;;;;;;;;;;4985159;28;20101;-57
2023/08/25 02:32:13;;;;;;;14.80;3.33;;;;;;;;;;4981261;28;20055;-59
2023/08/25 02:35:07;;;;;;;10.40;3.58;;;;;;;;;;4982384;28;20490;-58
2023/08/25 02:37:59;;;;;;;14.05;4.22;;;;;;;;;;4982717;28;20058;-58
2023/08/25 02:40:53;;;;;;;10.10;3.63;;;;;;;;;;4980357;28;20774;-53
2023/08/25 02:43:40;;;;;;;15.63;4.07;;;;;;;;;;4981947;28;20058;-52
2023/08/25 02:46:34;;;;;;;17.73;4.32;;;;;;;;;;4982052;28;20892;-53
2023/08/25 02:49:21;;;;;;;14.02;4.20;;;;;;;;;;4983411;28;20058;-61
2023/08/25 02:52:15;;;;;;;9.20;3.95;;;;;;;;;;4979521;28;20062;-57
2023/08/25 02:55:02;;;;;;;9.10;3.53;;;;;;;;;;4984316;28;20417;-57
2023/08/25 02:57:56;;;;;;;11.20;4.00;;;;;;;;;;4976778;28;20054;-55
2023/08/25 03:00:43;;;;;;;8.82;3.30;;;;;;;;;;4982548;28;20121;-57
2023/08/25 03:03:39;;;;;;;9.18;4.20;;;;;;;;;;4981712;28;20050;-54
2023/08/25 03:06:26;;;;;;;13.27;4.22;;;;;;;;;;4982889;28;20487;-56
2023/08/25 03:09:20;;;;;;;11.98;4.10;;;;;;;;;;4981904;28;20117;-64
2023/08/25 03:12:07;;;;;;;10.68;4.28;;;;;;;;;;4980372;28;20054;-54
2023/08/25 03:15:01;;;;;;;8.07;4.13;;;;;;;;;;4980147;28;21019;-57
2023/08/25 03:17:48;;;;;;;16.58;4.55;;;;;;;;;;4983056;28;20832;-57
2023/08/25 03:20:30;;;;;;;14.13;4.93;;;;;;;;;;4983372;28;20062;-55
2023/08/25 03:23:17;;;;;;;6.45;4.32;;;;;;;;;;4982793;28;20060;-55
2023/08/25 03:26:12;;;;;;;11.43;4.47;;;;;;;;;;4981748;28;20443;-65
2023/08/25 03:28:58;;;;;;;14.15;4.72;;;;;;;;;;4982593;28;20050;-65
2023/08/25 03:31:52;;;;;;;11.82;4.85;;;;;;;;;;4980488;28;20108;-63
2023/08/25 03:34:39;;;;;;;12.05;4.80;;;;;;;;;;4981163;28;20114;-65
2023/08/25 03:37:33;;;;;;;13.05;4.60;;;;;;;;;;4980065;28;20498;-63
2023/08/25 03:40:21;;;;;;;14.02;4.35;;;;;;;;;;4982601;28;20097;-57
2023/08/25 03:43:15;;;;;;;12.60;4.53;;;;;;;;;;4984391;28;20054;-56
2023/08/25 03:46:02;;;;;;;11.35;4.30;;;;;;;;;;4982223;28;20054;-57
2023/08/25 03:48:57;;;;;;;13.93;4.20;;;;;;;;;;4981685;28;20109;-55
2023/08/25 03:51:43;;;;;;;14.55;4.40;;;;;;;;;;4979313;28;20046;-57
2023/08/25 03:54:37;;;;;;;10.20;4.15;;;;;;;;;;4980475;28;21532;-60
2023/08/25 03:57:06;;;;;;;6.07;3.67;;;;;;;;;;4980423;28;20598;-59
2023/08/25 03:59:58;;;;;;;15.27;4.15;;;;;;;;;;4979921;28;20187;-60
2023/08/25 04:02:45;;;;;;;10.43;4.00;;;;;;;;;;4979195;28;20116;-59
2023/08/25 04:05:39;;;;;;;12.68;4.32;;;;;;;;;;4970037;28;20054;-63
2023/08/25 04:08:26;;;;;;;12.80;4.53;;;;;;;;;;4976399;28;20042;-62
2023/08/25 04:11:20;;;;;;;8.13;4.25;;;;;;;;;;4974737;28;20054;-62
2023/08/25 04:14:14;;;;;;;11.90;4.68;;;;;;;;;;4979021;28;20050;-62
2023/08/25 04:17:08;;;;;;;11.30;4.60;;;;;;;;;;4981744;28;20086;-61
2023/08/25 04:20:09;;;;;;;12.77;4.38;;;;;;;;;;4982639;28;20054;-62
2023/08/25 04:23:02;;;;;;;18.92;4.93;;;;;;;;;;4979781;28;20054;-52
2023/08/25 04:25:49;;;;;;;13.45;4.40;;;;;;;;;;4977751;28;20094;-57
2023/08/25 04:28:43;;;;;;;14.15;4.40;;;;;;;;;;4978520;28;20050;-54
2023/08/25 04:31:30;;;;;;;10.88;4.07;;;;;;;;;;4979537;28;20539;-57
2023/08/25 04:34:24;;;;;;;10.48;4.47;;;;;;;;;;4980620;28;20477;-57
2023/08/25 04:37:18;;;;;;;13.32;4.47;;;;;;;;;;4978715;28;20135;-54
2023/08/25 04:40:12;;;;;;;9.35;4.25;;;;;;;;;;4978515;28;20054;-52
2023/08/25 04:42:59;;;;;;;16.38;5.05;;;;;;;;;;4976591;28;20109;-55
2023/08/25 04:45:53;;;;;;;9.38;4.72;;;;;;;;;;4977394;28;20396;-59
2023/08/25 04:48:45;;;;;;;11.82;4.53;;;;;;;;;;4980953;28;20078;-59
2023/08/25 04:51:34;;;;;;;13.68;5.30;;;;;;;;;;4973304;28;20046;-60
2023/08/25 04:54:21;;;;;;;12.82;5.50;;;;;;;;;;4977870;28;20058;-58
2023/08/25 04:57:15;;;;;;;10.98;5.10;;;;;;;;;;4972647;28;20063;-59
2023/08/25 05:00:05;;;;;;;15.38;5.28;;;;;;;;;;4979057;28;20055;-57
2023/08/25 05:02:56;;;;;;;9.90;4.53;;;;;;;;;;4977355;28;20062;-62
2023/08/25 05:05:44;;;;;;;20.25;4.90;;;;;;;;;;4971596;28;20123;-62
2023/08/25 05:08:38;;;;;;;8.18;4.25;;;;;;;;;;4983725;28;20050;-63
2023/08/25 05:11:25;;;;;;;13.07;4.30;;;;;;;;;;4985521;28;20054;-62
2023/08/25 05:14:19;;;;;;;13.20;3.72;;;;;;;;;;4985641;28;20166;-62
2023/08/25 05:17:06;;;;;;;17.25;4.00;;;;;;;;;;4985768;28;20050;-63
2023/08/25 05:20:16;;;;;;;13.52;4.18;;;;;;;;;;4985877;28;20146;-52
2023/08/25 05:23:10;;;;;;;9.18;3.95;;;;;;;;;;4985953;28;20050;-58
2023/08/25 05:26:04;;;;;;;9.10;3.67;;;;;;;;;;4986300;28;20054;-56
2023/08/25 05:28:51;;;;;;;10.40;3.75;;;;;;;;;;4982581;28;20578;-54
2023/08/25 05:31:45;;;;;;;8.18;4.43;;;;;;;;;;4986241;28;20066;-62
2023/08/25 05:34:32;;;;;;;9.20;3.95;;;;;;;;;;4986226;28;20062;-61
2023/08/25 05:37:26;;;;;;;14.63;3.50;;;;;;;;;;4986459;28;20112;-61
2023/08/25 05:40:13;;;;;;;10.93;3.17;;;;;;;;;;4986758;28;20046;-61
2023/08/25 05:43:07;;;;;;;7.90;2.80;;;;;;;;;;4986535;28;20054;-61
2023/08/25 05:45:54;;;;;;;12.57;3.70;;;;;;;;;;4983582;28;20066;-60
2023/08/25 05:48:48;;;;;;;9.80;3.17;;;;;;;;;;4986598;28;20141;-61
2023/08/25 05:51:35;;;;;;;9.48;2.90;;;;;;;;;;4986033;28;20054;-61
2023/08/25 05:54:29;;;;;;;17.83;3.53;;;;;;;;;;4986457;28;20523;-61
2023/08/25 05:57:16;;;;;;;11.98;2.88;;;;;;;;;;4988726;28;20440;-59
2023/08/25 06:00:11;;;;;;;6.65;3.08;;;;;;;;;;4987956;28;20113;-61
2023/08/25 06:02:58;;;;;;;3.97;2.28;;;;;;;;;;4986324;28;20054;-61
2023/08/25 06:05:53;;;;;;;6.82;2.58;;;;;;;;;;4987824;28;20094;-61
2023/08/25 06:08:40;;;;;;;9.05;2.83;;;;;;;;;;4986499;28;20138;-60
2023/08/25 06:11:33;;;;;;;9.13;2.83;;;;;;;;;;4985047;28;20109;-59
2023/08/25 06:14:20;;;;;;;7.95;2.88;;;;;;;;;;4984135;28;20794;-60
2023/08/25 06:17:14;;;;;;;11.32;3.25;;;;;;;;;;4983875;28;20073;-64
2023/08/25 06:20:03;;;;;;;9.68;2.92;;;;;;;;;;4983645;28;20057;-63
2023/08/25 06:23:02;;;;;;;14.10;2.92;;;;;;;;;;4984121;28;20055;-63
2023/08/25 06:25:49;;;;;;;11.23;2.92;;;;;;;;;;4983332;28;20050;-58
2023/08/25 06:28:43;;;;;;;10.80;3.05;;;;;;;;;;4985014;28;20046;-60
2023/08/25 06:31:33;;;;;;;9.18;3.35;;;;;;;;;;4984362;28;20080;-60
2023/08/25 06:34:24;;;;;;;8.25;2.65;;;;;;;;;;4983146;28;20146;-61
2023/08/25 06:37:11;;;;;;;16.30;3.20;;;;;;;;;;4981796;28;20062;-61
2023/08/25 06:40:07;;;;;;;8.88;3.38;;;;;;;;;;4981239;28;20129;-60
2023/08/25 06:43:01;;;;;;;9.23;2.90;;;;;;;;;;4985390;28;20054;-64
2023/08/25 06:45:48;;;;;;;9.57;3.10;;;;;;;;;;4982298;28;20058;-65
2023/08/25 06:48:42;;;;;;;8.20;2.83;;;;;;;;;;4985467;28;20124;-65
2023/08/25 06:51:36;;;;;;;7.10;3.00;;;;;;;;;;4983142;28;20121;-64
2023/08/25 06:54:26;;;;;;;8.55;2.80;;;;;;;;;;4983936;28;20523;-58
2023/08/25 06:57:20;;;;;;;12.65;3.10;;;;;;;;;;4984667;28;20058;-64
2023/08/25 07:00:08;;;;;;;7.35;3.08;;;;;;;;;;4984804;28;20058;-65
2023/08/25 07:03:03;;;;;;;10.98;3.10;;;;;;;;;;4982981;28;20161;-64
2023/08/25 07:05:49;;;;;;;11.90;2.90;;;;;;;;;;4982068;28;20065;-64
2023/08/25 07:08:43;;;;;;;6.97;2.65;;;;;;;;;;4983392;28;20046;-64
2023/08/25 07:11:37;;;;;;;6.75;2.35;;;;;;;;;;4981031;28;20057;-59
2023/08/25 07:14:31;;;;;;;5.88;2.50;;;;;;;;;;4983322;28;20428;-59
2023/08/25 07:17:25;;;;;;;6.72;2.45;;;;;;;;;;4982959;28;20058;-60
2023/08/25 07:20:27;;;;;;;15.18;3.22;;;;;;;;;;4982274;28;20054;-59
2023/08/25 07:23:27;;;;;;;7.40;2.97;;;;;;;;;;4984436;28;20058;-60
2023/08/25 07:26:14;;;;;;;10.32;3.15;;;;;;;;;;4982610;28;20719;-62
2023/08/25 07:29:08;;;;;;;12.85;3.22;;;;;;;;;;4981736;28;20054;-63
2023/08/25 07:31:55;;;;;;;8.10;2.80;;;;;;;;;;4981550;28;20097;-63
2023/08/25 07:34:52;;;;;;;7.68;3.00;;;;;;;;;;4983144;28;21877;-63
2023/08/25 07:37:41;;;;;;;5.63;2.72;;;;;;;;;;4984901;28;20090;-63
2023/08/25 07:40:33;;;;;;;9.18;2.70;;;;;;;;;;4985645;28;20086;-56
2023/08/25 07:43:20;;;;;;;5.90;2.58;;;;;;;;;;4983605;28;20058;-60
2023/08/25 07:46:14;;;;;;;5.88;2.95;;;;;;;;;;4979453;28;20504;-57
2023/08/25 07:49:01;;;;;;;6.32;2.97;;;;;;;;;;4984179;28;20061;-57
2023/08/25 07:51:55;;;;;;;7.35;2.65;;;;;;;;;;4983115;28;20495;-64
2023/08/25 07:54:42;;;;;;;5.75;2.47;;;;;;;;;;4983865;28;20113;-65
2023/08/25 07:57:36;;;;;;;5.80;2.45;;;;;;;;;;4981179;28;20090;-64
2023/08/25 08:00:26;;;;;;;8.85;2.63;;;;;;;;;;4983756;28;20050;-64
2023/08/25 08:03:19;;;;;;;6.13;2.40;;;;;;;;;;4981380;28;20300;-63
2023/08/25 08:06:05;;;;;;;5.47;2.35;;;;;;;;;;4982371;28;20069;-63
2023/08/25 08:09:00;;;;;;;5.60;2.50;;;;;;;;;;4983850;28;20439;-55
2023/08/25 08:11:46;;;;;;;6.80;2.22;;;;;;;;;;4974122;28;20078;-58
2023/08/25 08:14:40;;;;;;;8.15;2.55;;;;;;;;;;4982868;28;20492;-59
2023/08/25 08:17:28;;;;;;;5.07;2.53;;;;;;;;;;4982074;28;20062;-57
2023/08/25 08:20:28;;;;;;;6.60;2.65;;;;;;;;;;4981582;28;20062;-60
2023/08/25 08:23:22;;;;;;;8.13;2.88;;;;;;;;;;4982846;28;20050;-60
2023/08/25 08:26:15;;;;;;;6.20;2.70;;;;;;;;;;4982993;28;20114;-60
2023/08/25 08:29:02;;;;;;;8.77;2.78;;;;;;;;;;4984331;28;20054;-58
2023/08/25 08:31:56;;;;;;;6.45;2.67;;;;;;;;;;4980946;28;20097;-59
2023/08/25 08:34:43;;;;;;;7.10;2.70;;;;;;;;;;4981921;28;20491;-61
2023/08/25 08:37:38;;;;;;;9.70;2.63;;;;;;;;;;4982954;28;20535;-48
2023/08/25 08:40:25;;;;;;;5.28;2.33;;;;;;;;;;4983466;28;20109;-49
2023/08/25 08:43:19;;;;;;;8.07;2.55;;;;;;;;;;4986875;28;20058;-48
2023/08/25 08:46:07;;;;;;;7.80;3.13;;;;;;;;;;4986538;28;20249;-51
2023/08/25 08:49:02;;;;;;;9.70;3.08;;;;;;;;;;4985471;28;20046;-63
2023/08/25 08:51:49;;;;;;;6.22;2.63;;;;;;;;;;4986542;28;20058;-59
2023/08/25 08:54:44;;;;;;;6.68;2.85;;;;;;;;;;4985435;28;20089;-60
2023/08/25 08:57:31;;;;;;;4.55;3.10;;;;;;;;;;4989164;28;20054;-60
2023/08/25 09:00:26;;;;;;;3.25;2.00;;;;;;;;;;4987052;28;20058;-60
2023/08/25 09:03:17;;;;;;;6.40;2.85;;;;;;;;;;4984018;28;20058;-59
2023/08/25 09:06:10;;;;;;;4.80;2.90;;;;;;;;;;4984411;28;20086;-52
2023/08/25 09:09:01;;;;;;;6.57;2.85;;;;;;;;;;4983898;28;20535;-54
2023/08/25 09:11:53;;;;;;;8.27;2.65;;;;;;;;;;4985691;28;20054;-47
2023/08/25 09:14:40;;;;;;;8.35;3.55;;;;;;;;;;4984992;28;20054;-47
2023/08/25 09:17:35;;;;;;;7.47;2.80;;;;;;;;;;4984923;28;20058;-63
2023/08/25 09:20:23;;;;;;;8.05;3.17;;;;;;;;;;4986349;28;20153;-60
2023/08/25 09:23:30;;;;;;;8.98;3.20;;;;;;;;;;5003582;28;20069;-61
2023/08/25 09:26:17;;;;;;;12.13;3.90;;;;;;;;;;5005277;28;20049;-61
2023/08/25 09:29:11;;;;;;;10.85;4.50;;;;;;;;;;5003655;28;20408;-60
2023/08/25 09:31:58;;;;;;;11.82;4.60;;;;;;;;;;5005027;28;20124;-60
2023/08/25 09:34:52;;;;;;;7.72;4.18;;;;;;;;;;5004120;28;20053;-51
2023/08/25 09:37:40;;;;;;;8.45;3.78;;;;;;;;;;5005739;28;20058;-52
2023/08/25 09:40:35;;;;;;;8.75;3.38;;;;;;;;;;5003448;28;20053;-55
2023/08/25 09:43:30;;;;;;;8.10;3.40;;;;;;;;;;5003006;28;20519;-51
2023/08/25 09:46:26;;;;;;;7.30;3.65;;;;;;;;;;5005076;28;20049;-60
2023/08/25 09:49:14;;;;;;;8.10;3.50;;;;;;;;;;5004298;28;20053;-58
2023/08/25 09:52:10;;;;;;;5.30;3.55;;;;;;;;;;5000745;28;20050;-57
2023/08/25 09:54:57;;;;;;;8.38;3.75;;;;;;;;;;5002831;28;20054;-57
2023/08/25 09:57:51;;;;;;;10.00;3.50;;;;;;;;;;5006780;28;20490;-58
2023/08/25 10:00:39;;;;;;;7.45;4.03;;;;;;;;;;5004811;28;20053;-58
2023/08/25 10:03:34;;;;;;;7.20;3.47;;;;;;;;;;5005798;28;20066;-62
2023/08/25 10:06:29;;;;;;;8.00;3.65;;;;;;;;;;5004523;28;20050;-64
2023/08/25 10:09:24;;;;;;;14.98;3.95;;;;;;;;;;5005086;28;20483;-64
2023/08/25 10:12:12;;;;;;;7.22;3.42;;;;;;;;;;5004102;28;20113;-55
2023/08/25 10:15:09;;;;;;;6.63;3.75;;;;;;;;;;5006066;28;20048;-58
2023/08/25 10:18:03;;;;;;;9.48;3.72;;;;;;;;;;5003264;28;20479;-52
2023/08/25 10:20:56;;;;;;;10.63;3.63;;;;;;;;;;5002938;28;20082;-50
2023/08/25 10:23:58;;;;;;;8.48;4.22;;;;;;;;;;4985786;28;20064;-53
2023/08/25 10:26:46;;;;;;;10.85;4.13;;;;;;;;;;4984497;28;20512;-51
2023/08/25 10:29:40;;;;;;;12.40;4.50;;;;;;;;;;4984626;28;20142;-54
2023/08/25 10:32:53;;;;;;;8.38;4.03;;;;;;;;;;4984427;28;20054;-55
2023/08/25 10:35:48;;;;;;;6.22;4.18;;;;;;;;;;4980460;28;20065;-55
2023/08/25 10:38:54;;;;;;;6.40;3.83;;;;;;;;;;4985892;28;20058;-48
2023/08/25 10:41:53;;;;;;;8.63;4.07;;;;;;;;;;4983594;28;20100;-64
2023/08/25 10:44:52;;;;;;;14.63;4.72;;;;;;;;;;4982595;28;20054;-53
2023/08/25 10:47:46;;;;;;;11.85;4.45;;;;;;;;;;4982773;28;20515;-52
2023/08/25 10:51:20;;;;;;;8.95;4.30;;;;;;;;;;4984504;28;20125;-53
2023/08/25 10:54:17;;;;;;;11.98;4.20;;;;;;;;;;4983941;28;20050;-46
2023/08/25 10:57:38;;;;;;;12.98;4.75;;;;;;;;;;4981992;28;20054;-54
2023/08/25 11:00:36;;;;;;;9.23;4.78;;;;;;;;;;4981299;28;20055;-58
2023/08/25 11:03:46;;;;;;;12.30;5.07;;;;;;;;;;4983674;28;20113;-56
2023/08/25 11:06:45;;;;;;;10.25;5.15;;;;;;;;;;4982567;28;20451;-57
2023/08/25 11:09:33;;;;;;;11.88;4.55;;;;;;;;;;4983214;28;20133;-63
2023/08/25 11:12:29;;;;;;;9.95;4.30;;;;;;;;;;4979532;28;20109;-63
2023/08/25 11:15:37;;;;;;;7.63;4.13;;;;;;;;;;4983186;28;20580;-63
2023/08/25 11:18:31;;;;;;;9.05;3.92;;;;;;;;;;4985545;28;20061;-63
2023/08/25 11:21:34;;;;;;;10.38;4.03;;;;;;;;;;4984634;28;20116;-64
2023/08/25 11:24:35;;;;;;;4.30;3.70;;;;;;;;;;4983495;28;20054;-63
2023/08/25 11:27:29;;;;;;;7.43;3.90;;;;;;;;;;4983167;28;20093;-63
2023/08/25 11:30:18;;;;;;;7.35;4.00;;;;;;;;;;4983752;28;20068;-65
2023/08/25 11:33:17;;;;;;;5.43;3.53;;;;;;;;;;4982490;28;20050;-63
2023/08/25 11:36:15;;;;;;;7.68;3.60;;;;;;;;;;4980360;28;20062;-63
2023/08/25 11:39:00;;;;;;;13.10;3.70;;;;;;;;;;4980938;28;20112;-65
2023/08/25 11:41:55;;;;;;;12.82;4.60;;;;;;;;;;4979962;28;20059;-58
2023/08/25 11:44:42;;;;;;;8.40;3.40;;;;;;;;;;4979983;28;20050;-60
2023/08/25 11:47:37;;;;;;;10.68;3.58;;;;;;;;;;4982398;28;20069;-59
2023/08/25 11:50:25;;;;;;;7.72;3.83;;;;;;;;;;4988187;28;20301;-53
2023/08/25 11:53:19;;;;;;;9.77;4.05;;;;;;;;;;4986185;28;20096;-57
2023/08/25 11:56:06;;;;;;;4.60;3.53;;;;;;;;;;4980348;28;20515;-61
2023/08/25 11:59:00;;;;;;;8.30;3.40;;;;;;;;;;4982474;28;20050;-61
2023/08/25 12:01:49;;;;;;;13.95;4.32;;;;;;;;;;4980121;28;20062;-61
2023/08/25 12:04:56;;;;;;;8.07;3.95;;;;;;;;;;4979622;28;20141;-61
2023/08/25 12:07:44;;;;;;;7.10;3.78;;;;;;;;;;4980522;28;20057;-61
2023/08/25 12:10:39;;;;;;;7.43;4.50;;;;;;;;;;4982395;28;20114;-60
2023/08/25 12:13:25;;;;;;;7.47;4.03;;;;;;;;;;4983013;28;20062;-60
2023/08/25 12:16:19;;;;;;;8.50;4.68;;;;;;;;;;4982729;28;20263;-60
2023/08/25 12:19:07;;;;;;;10.68;4.43;;;;;;;;;;4985857;28;20050;-60
2023/08/25 12:22:10;;;;;;;6.68;4.03;;;;;;;;;;4984048;28;20199;-60
2023/08/25 12:25:04;;;;;;;6.22;4.28;;;;;;;;;;4980760;28;20046;-55
2023/08/25 12:27:59;;;;;;;9.35;5.20;;;;;;;;;;4981534;28;20495;-56
2023/08/25 12:30:45;;;;;;;8.88;4.03;;;;;;;;;;4978769;28;20047;-57
2023/08/25 12:33:39;;;;;;;7.53;4.40;;;;;;;;;;4980541;28;20050;-55
2023/08/25 12:36:35;;;;;;;10.73;4.72;;;;;;;;;;4983039;28;20062;-58
2023/08/25 12:39:27;;;;;;;6.72;4.38;;;;;;;;;;4981309;28;20058;-64
2023/08/25 12:42:18;;;;;;;11.20;5.18;;;;;;;;;;4981663;28;20054;-63
2023/08/25 12:45:11;;;;;;;9.55;4.55;;;;;;;;;;4985469;28;20172;-65
2023/08/25 12:47:58;;;;;;;5.68;4.22;;;;;;;;;;4979854;28;20114;-64
2023/08/25 12:50:52;;;;;;;10.45;4.68;;;;;;;;;;4983233;28;20093;-64
2023/08/25 12:53:39;;;;;;;9.93;4.90;;;;;;;;;;4985267;28;20102;-60
2023/08/25 12:56:33;;;;;;;7.50;4.30;;;;;;;;;;4982008;28;20058;-60
2023/08/25 12:59:20;;;;;;;12.05;4.72;;;;;;;;;;4985757;28;20475;-61
2023/08/25 13:02:21;;;;;;;8.30;4.35;;;;;;;;;;4982785;28;20558;-61
2023/08/25 13:05:09;;;;;;;9.75;5.32;;;;;;;;;;4980971;28;20046;-49
2023/08/25 13:08:03;;;;;;;7.15;4.32;;;;;;;;;;4979837;28;20118;-53
2023/08/25 13:10:56;;;;;;;9.52;4.60;;;;;;;;;;4981751;28;20532;-48
2023/08/25 13:13:50;;;;;;;10.88;4.40;;;;;;;;;;4969809;28;20582;-53
2023/08/25 13:16:37;;;;;;;8.88;4.53;;;;;;;;;;4980449;28;20097;-55
2023/08/25 13:19:13;;;;;;;8.07;4.35;;;;;;;;;;4980506;28;20050;-51
2023/08/25 13:22:06;;;;;;;14.48;4.65;;;;;;;;;;4985097;28;20058;-66
2023/08/25 13:25:00;;;;;;;6.43;4.53;;;;;;;;;;4983098;28;20055;-51
2023/08/25 13:27:47;;;;;;;7.70;4.80;;;;;;;;;;4975593;28;20081;-53
2023/08/25 13:30:41;;;;;;;8.63;4.35;;;;;;;;;;4985064;28;20050;-54
2023/08/25 13:33:28;;;;;;;6.15;4.32;;;;;;;;;;4981738;28;20599;-53
2023/08/25 13:36:23;;;;;;;7.82;4.65;;;;;;;;;;4980295;28;20058;-52
2023/08/25 13:39:16;;;;;;;12.35;4.50;;;;;;;;;;4983012;28;20995;-54
2023/08/25 13:42:03;;;;;;;11.15;4.90;;;;;;;;;;4966350;28;20133;-66
2023/08/25 13:44:58;;;;;;;8.35;4.50;;;;;;;;;;4982965;28;20594;-61
2023/08/25 13:47:46;;;;;;;9.43;4.40;;;;;;;;;;4980470;28;20054;-61
2023/08/25 13:50:38;;;;;;;7.28;4.00;;;;;;;;;;4980257;28;20629;-61
2023/08/25 13:53:11;;;;;;;6.13;4.50;;;;;;;;;;4979391;28;20553;-61
2023/08/25 13:56:05;;;;;;;9.25;4.55;;;;;;;;;;4977520;28;20054;-61
2023/08/25 13:58:52;;;;;;;7.68;4.18;;;;;;;;;;4982025;28;20149;-60
2023/08/25 14:01:46;;;;;;;6.18;4.47;;;;;;;;;;4978288;28;20050;-55
2023/08/25 14:04:33;;;;;;;5.30;4.25;;;;;;;;;;4986903;28;20117;-50
2023/08/25 14:07:27;;;;;;;7.20;4.03;;;;;;;;;;4982308;28;20109;-50
2023/08/25 14:10:15;;;;;;;6.70;4.82;;;;;;;;;;4986679;28;20124;-55
2023/08/25 14:13:08;;;;;;;9.57;4.68;;;;;;;;;;4981523;28;20054;-50
2023/08/25 14:15:55;;;;;;;10.60;4.80;;;;;;;;;;4981008;28;20102;-54
2023/08/25 14:18:49;;;;;;;7.38;4.65;;;;;;;;;;4981235;28;20531;-65
2023/08/25 14:21:37;;;;;;;9.82;5.07;;;;;;;;;;4980513;28;20077;-53
2023/08/25 14:24:37;;;;;;;9.80;4.97;;;;;;;;;;4981787;28;20071;-55
2023/08/25 14:27:24;;;;;;;8.25;4.88;;;;;;;;;;4971792;28;20137;-54
2023/08/25 14:30:19;;;;;;;9.00;5.07;;;;;;;;;;4971230;28;20113;-54
2023/08/25 14:33:06;;;;;;;10.48;4.97;;;;;;;;;;4967581;28;20160;-54
2023/08/25 14:36:00;;;;;;;8.25;5.28;;;;;;;;;;4975468;28;20086;-61
2023/08/25 14:38:48;;;;;;;10.70;5.32;;;;;;;;;;4972986;28;20058;-61
2023/08/25 14:41:42;;;;;;;9.85;5.50;;;;;;;;;;4971369;28;20523;-61
2023/08/25 14:44:29;;;;;;;7.47;4.63;;;;;;;;;;4970134;28;20161;-63
2023/08/25 14:47:23;;;;;;;7.80;4.53;;;;;;;;;;4962300;28;20082;-60
2023/08/25 14:50:18;;;;;;;11.10;5.32;;;;;;;;;;4970248;28;20073;-60
2023/08/25 14:53:06;;;;;;;7.68;5.28;;;;;;;;;;4972619;28;20061;-59
2023/08/25 14:56:00;;;;;;;7.90;4.50;;;;;;;;;;4980329;28;20089;-59
2023/08/25 14:58:27;;;;;;;7.22;4.00;;;;;;;;;;4978371;28;20054;-46
2023/08/25 15:01:01;;;;;;;7.57;4.60;;;;;;;;;;4973449;28;20057;-50
2023/08/25 15:03:55;;;;;;;9.05;4.70;;;;;;;;;;4983875;28;20538;-50
2023/08/25 15:06:42;;;;;;;7.05;4.43;;;;;;;;;;4980977;28;20484;-51
2023/08/25 15:09:37;;;;;;;11.63;4.70;;;;;;;;;;4980521;28;20046;-54
2023/08/25 15:12:26;;;;;;;14.38;5.07;;;;;;;;;;4982872;28;20527;-59
2023/08/25 15:15:18;;;;;;;8.38;4.28;;;;;;;;;;4984143;28;20050;-53
2023/08/25 15:18:13;;;;;;;8.00;4.82;;;;;;;;;;4962029;28;20069;-51
2023/08/25 15:21:08;;;;;;;8.05;4.47;;;;;;;;;;4968262;28;20049;-50
2023/08/25 15:24:02;;;;;;;6.32;4.45;;;;;;;;;;4963492;28;22983;-53
2023/08/25 15:26:55;;;;;;;6.80;4.22;;;;;;;;;;4976127;28;20189;-55
2023/08/25 15:29:42;;;;;;;9.70;4.55;;;;;;;;;;4978846;28;20130;-53
2023/08/25 15:32:36;;;;;;;8.95;4.88;;;;;;;;;;4981894;28;20852;-54
2023/08/25 15:35:25;;;;;;;7.63;4.75;;;;;;;;;;4978566;28;20054;-58
2023/08/25 15:38:17;;;;;;;13.02;4.63;;;;;;;;;;4978836;28;20535;-60
2023/08/25 15:41:09;;;;;;;7.75;5.22;;;;;;;;;;4978618;28;20128;-59
2023/08/25 15:44:04;;;;;;;5.97;4.55;;;;;;;;;;4972906;28;20657;-59
2023/08/25 15:46:51;;;;;;;8.25;5.00;;;;;;;;;;4975352;28;20582;-59
2023/08/25 15:49:45;;;;;;;5.40;4.05;;;;;;;;;;4972849;28;20090;-55
2023/08/25 15:52:32;;;;;;;7.22;4.97;;;;;;;;;;4976980;28;20137;-59
2023/08/25 15:55:27;;;;;;;6.53;4.57;;;;;;;;;;4974779;28;20062;-60
2023/08/25 15:58:14;;;;;;;7.25;4.82;;;;;;;;;;4979166;28;20055;-59
2023/08/25 16:01:12;;;;;;;6.88;4.82;;;;;;;;;;4981993;28;20113;-60
2023/08/25 16:03:58;;;;;;;8.82;4.93;;;;;;;;;;4977432;28;20519;-59
2023/08/25 16:06:52;;;;;;;8.73;5.10;;;;;;;;;;4983436;28;20053;-60
2023/08/25 16:09:39;;;;;;;5.90;4.75;;;;;;;;;;4978044;28;20049;-58
2023/08/25 16:12:32;;;;;;;7.45;5.55;;;;;;;;;;4974182;28;20355;-52
2023/08/25 16:15:21;;;;;;;6.47;4.47;;;;;;;;;;4978799;28;20054;-55
2023/08/25 16:18:14;;;;;;;7.13;4.97;;;;;;;;;;4984500;28;20058;-53
2023/08/25 16:21:05;;;;;;;6.13;4.63;;;;;;;;;;4983731;28;20984;-51
2023/08/25 16:24:05;;;;;;;6.68;5.10;;;;;;;;;;4985814;28;21610;-54
2023/08/25 16:26:59;;;;;;;5.32;4.63;;;;;;;;;;4984457;28;20050;-56
2023/08/25 16:29:37;;;;;;;10.73;5.28;;;;;;;;;;4983530;28;20109;-59
2023/08/25 16:32:24;;;;;;;8.80;5.40;;;;;;;;;;4965855;28;20141;-58
2023/08/25 16:35:19;;;;;;;7.60;5.10;;;;;;;;;;4980355;28;20574;-57
2023/08/25 16:38:06;;;;;;;9.63;4.95;;;;;;;;;;4975858;28;20054;-58
2023/08/25 16:41:00;;;;;;;5.35;4.72;;;;;;;;;;4977623;28;20682;-57
2023/08/25 16:43:49;;;;;;;7.20;4.90;;;;;;;;;;4976811;28;20101;-59
2023/08/25 16:46:41;;;;;;;8.85;5.43;;;;;;;;;;4976298;28;20109;-59
2023/08/25 16:49:29;;;;;;;7.40;5.30;;;;;;;;;;4977963;28;20058;-49
2023/08/25 16:52:25;;;;;;;6.90;4.55;;;;;;;;;;4974666;28;20145;-54
2023/08/25 16:55:12;;;;;;;7.30;5.10;;;;;;;;;;4980681;28;20946;-53
2023/08/25 16:58:07;;;;;;;10.38;4.35;;;;;;;;;;4978090;28;20061;-48
2023/08/25 17:00:55;;;;;;;9.95;5.68;;;;;;;;;;4981464;28;20555;-53
2023/08/25 17:03:36;;;;;;;7.88;3.97;;;;;;;;;;4980506;28;20145;-53
2023/08/25 17:06:11;;;;;;;8.40;4.97;;;;;;;;;;4989034;28;20058;-59